createdAt,value
2023-03-18T00:00:52.421Z,12.07
2023-03-18T00:10:54.693Z,9.60
2023-03-18T00:21:01.126Z,11.73
2023-03-18T00:31:08.949Z,10.17
2023-03-18T00:41:12.725Z,12.13
2023-03-18T00:51:18.705Z,8.33
2023-03-18T01:01:24.704Z,9.53
2023-03-18T01:11:32.145Z,9.47
2023-03-18T01:21:34.689Z,7.37
2023-03-18T01:31:38.019Z,10.97
2023-03-18T01:41:46.513Z,8.57
2023-03-18T01:52:23.278Z,13.10
2023-03-18T02:02:26.434Z,7.33
2023-03-18T02:12:34.670Z,12.40
2023-03-18T02:22:52.771Z,4.70
2023-03-18T02:33:00.587Z,5.17
2023-03-18T02:43:32.745Z,7.10
2023-03-18T02:53:44.503Z,8.17
2023-03-18T03:03:49.420Z,6.33
2023-03-18T03:13:54.362Z,5.93
2023-03-18T03:23:59.749Z,8.93
2023-03-18T03:34:04.900Z,5.17
2023-03-18T03:44:07.571Z,9.10
2023-03-18T03:54:14.244Z,4.17
2023-03-18T04:04:19.406Z,7.80
2023-03-18T04:14:24.202Z,6.83
2023-03-18T04:24:30.675Z,8.07
2023-03-18T04:34:34.351Z,6.67
2023-03-18T04:44:41.422Z,5.90
2023-03-18T04:54:43.705Z,5.17
2023-03-18T05:04:54.162Z,10.30
2023-03-18T05:15:01.051Z,5.37
2023-03-18T05:25:07.580Z,6.77
2023-03-18T05:35:11.617Z,5.27
2023-03-18T05:45:25.641Z,6.47
2023-03-18T05:55:31.123Z,7.90
2023-03-18T06:05:34.161Z,7.93
2023-03-18T06:15:39.026Z,5.40
2023-03-18T06:25:42.242Z,10.33
2023-03-18T06:35:48.425Z,7.70
2023-03-18T06:45:50.968Z,6.87
2023-03-18T06:55:59.457Z,3.50
2023-03-18T07:06:11.683Z,8.03
2023-03-18T07:16:15.701Z,5.13
2023-03-18T07:26:20.497Z,2.97
2023-03-18T07:36:28.301Z,7.17
2023-03-18T07:46:35.256Z,5.17
2023-03-18T07:56:37.382Z,12.23
2023-03-18T08:06:49.849Z,5.13
2023-03-18T08:16:54.432Z,7.63
2023-03-18T08:27:02.252Z,4.80
2023-03-18T08:37:08.508Z,5.23
2023-03-18T08:47:10.725Z,7.85
2023-03-18T08:57:18.530Z,4.90
2023-03-18T09:07:20.658Z,5.97
2023-03-18T09:17:35.875Z,8.75
2023-03-18T09:27:47.887Z,5.30
2023-03-18T09:37:54.202Z,4.60
2023-03-18T09:48:24.785Z,4.50
2023-03-18T09:58:54.773Z,4.00
2023-03-18T10:09:04.152Z,5.55
2023-03-18T10:19:06.339Z,6.32
2023-03-18T10:29:39.282Z,7.90
2023-03-18T10:39:41.845Z,5.60
2023-03-18T10:49:51.303Z,4.50
2023-03-18T10:59:56.704Z,6.78
2023-03-18T11:10:18.267Z,5.50
2023-03-18T11:20:27.198Z,5.88
2023-03-18T11:30:34.913Z,6.40
2023-03-18T11:40:42.428Z,4.38
2023-03-18T11:51:23.719Z,5.43
2023-03-18T12:01:53.232Z,4.85
2023-03-18T12:12:39.715Z,5.93
2023-03-18T12:23:02.274Z,4.03
2023-03-18T12:33:22.940Z,7.47
2023-03-18T12:43:34.157Z,5.38
2023-03-18T12:53:36.998Z,8.20
2023-03-18T13:03:41.167Z,4.55
2023-03-18T13:13:54.965Z,6.43
2023-03-18T13:24:22.082Z,8.23
2023-03-18T13:34:32.083Z,5.43
2023-03-18T13:44:45.415Z,3.90
2023-03-18T13:54:50.328Z,5.47
2023-03-18T14:04:59.754Z,6.18
2023-03-18T14:15:14.250Z,5.25
2023-03-18T14:25:22.756Z,5.47
2023-03-18T14:35:30.542Z,6.55
2023-03-18T14:45:37.796Z,5.55
2023-03-18T14:55:42.118Z,5.35
2023-03-18T15:05:46.679Z,6.80
2023-03-18T15:15:50.625Z,7.25
2023-03-18T15:26:00.584Z,11.20
2023-03-18T15:36:19.388Z,7.72
2023-03-18T15:46:38.157Z,6.80
2023-03-18T15:56:49.458Z,7.30
2023-03-18T16:06:54.952Z,7.40
2023-03-18T16:16:57.091Z,8.55
2023-03-18T16:27:02.174Z,8.50
2023-03-18T16:37:14.162Z,6.55
2023-03-18T16:47:28.574Z,8.25
2023-03-18T16:57:40.372Z,9.40
2023-03-18T17:07:46.088Z,9.25
2023-03-18T17:17:53.463Z,9.00
2023-03-18T17:28:03.363Z,17.90
2023-03-18T17:38:10.176Z,10.75
2023-03-18T17:58:39.283Z,15.48
2023-03-18T18:08:44.531Z,10.88
2023-03-18T18:18:49.506Z,9.93
2023-03-18T18:28:53.619Z,14.63
2023-03-18T18:38:58.895Z,15.13
2023-03-18T18:49:01.885Z,15.90
2023-03-18T18:59:26.846Z,18.85
2023-03-18T19:09:34.665Z,16.20
2023-03-18T19:19:46.016Z,16.42
2023-03-18T19:29:53.709Z,18.33
2023-03-18T19:39:57.057Z,22.95
2023-03-18T19:50:01.810Z,19.05
2023-03-18T20:00:16.177Z,17.70
2023-03-18T20:10:19.959Z,21.52
2023-03-18T20:20:28.549Z,25.13
2023-03-18T20:30:37.924Z,21.55
2023-03-18T20:40:42.738Z,16.90
2023-03-18T20:50:48.004Z,18.23
2023-03-18T21:00:55.567Z,18.52
2023-03-18T21:11:01.668Z,21.83
2023-03-18T21:21:08.947Z,18.88
2023-03-18T21:31:25.160Z,19.05
2023-03-18T21:41:30.496Z,20.55
2023-03-18T21:51:39.438Z,20.03
2023-03-18T22:01:42.315Z,20.85
2023-03-18T22:11:48.074Z,17.17
2023-03-18T22:21:53.896Z,21.13
2023-03-18T22:32:02.987Z,18.93
2023-03-18T22:42:15.190Z,19.87
2023-03-18T22:52:29.685Z,19.53
2023-03-18T23:02:37.222Z,22.10
2023-03-18T23:12:44.810Z,19.33
2023-03-18T23:22:47.249Z,24.67
2023-03-18T23:32:53.248Z,21.30
2023-03-18T23:43:03.119Z,22.27
2023-03-18T23:53:07.940Z,24.50
